Terminal Aerodrome Forecast
Issued by NWS

Home | Current Version | Previous Version | Text Only | Print | Product List | Glossary On
Versions: 1 2 3 4 5 6 7 8 9 10 11 12 13 14
000
FTUS43 KEAX 051100
TAFMKC
TAF
KMKC 051120Z 0512/0612 18005KT 5SM BR BKN100
     FM051400 19011KT P6SM SCT040
     FM052100 19011KT P6SM VCTS SCT040CB
     FM060100 16008KT P6SM SCT050 BKN100=

USA.gov is the U.S. government's official web portal to all federal, state and local government web resources and services.